Latest Weather Observations for Coonamble

IDN60801

Issued at 2:05 pm EST Tuesday 2 September 2014 (issued every 30 minutes, with the page automatically refreshed every 10 minutes)

About weather observations | Map of weather stations | Latest weather observations for NSW | Other Formats
Station Details ID: 051161 Name: COONAMBLE AIRPORT AWS Lat: -30.98 Lon: 148.38 Height: 181.3 m
Data from the previous 72 hours. | See also: Recent months at Coonamble
Date/Time
EST
Temp
°C
App
Temp
°C
Dew
Point
Rel
Hum
%
Delta-T
°C
Wind Press
QNH
hPa
Press
MSL
hPa
Rain
since 9 am
mm
Dir
 
Spd
km/h
Gust
km/h
Spd
kts
Gust
kts
02/02:00pm 15.7 7.8 2.2 40 6.1 SW 33 44 18 24 1014.4 1014.2 0.0
02/01:30pm 16.9 9.2 3.2 40 6.4 SW 33 46 18 25 1014.3 - 0.0
02/01:00pm 16.3 7.6 4.0 44 5.8 SW 39 52 21 28 1014.5 1014.3 0.0
02/12:31pm 16.5 8.6 2.2 38 6.5 SW 33 54 18 29 1014.6 - 0.0
02/12:30pm 17.0 9.9 5.3 46 5.7 SW 32 44 17 24 1014.6 - 0.0
02/12:00pm 14.6 6.6 4.0 49 4.9 SW 35 44 19 24 1014.7 1014.5 0.0
02/11:30am 15.7 8.1 5.6 51 4.9 SW 35 50 19 27 1014.8 - 0.0
02/11:00am 15.7 8.6 6.2 53 4.6 SW 33 43 18 23 1014.8 1014.6 0.0
02/10:30am 14.5 7.6 7.1 61 3.7 SW 33 50 18 27 1014.9 - 0.0
02/10:00am 13.3 6.3 6.9 65 3.1 SW 33 44 18 24 1014.9 1014.7 0.0
02/09:30am 12.9 6.2 8.0 72 2.4 SW 33 41 18 22 1014.8 - 0.0
02/09:00am 12.6 5.9 8.3 75 2.1 SW 33 46 18 25 1014.6 1014.4 0.2
02/08:30am 12.4 6.4 10.1 86 1.2 SW 32 46 17 25 1014.2 - 0.2
02/08:00am 11.8 8.6 11.3 97 0.3 WSW 19 30 10 16 1013.6 1013.4 0.2
02/07:30am 11.5 8.2 10.9 96 0.3 WSW 19 22 10 12 1012.8 - 0.2
02/07:00am 11.1 10.0 10.5 96 0.3 SE 7 9 4 5 1012.1 1011.8 0.2
02/06:30am 10.8 9.0 9.6 92 0.6 SE 9 11 5 6 1011.7 - 0.0
02/06:00am 11.5 9.3 9.2 86 1.2 ESE 11 17 6 9 1012.0 1011.7 0.0
02/05:30am 11.6 10.5 8.6 82 1.5 NE 4 9 2 5 1012.7 - 0.0
02/05:00am 11.9 8.7 8.4 79 1.7 SSE 15 19 8 10 1012.1 1011.8 0.0
02/04:30am 12.0 9.0 7.9 76 2.0 SSE 13 17 7 9 1012.6 - 0.0
02/04:00am 12.1 9.1 7.6 74 2.2 S 13 17 7 9 1012.7 1012.4 0.0
02/03:30am 12.3 8.5 7.6 73 2.3 S 17 22 9 12 1013.1 - 0.0
02/03:00am 12.7 7.9 7.2 69 2.7 SSW 22 32 12 17 1013.1 1012.8 0.0
02/02:30am 13.2 7.2 7.0 66 3.0 SSW 28 35 15 19 1013.0 - 0.0
02/02:00am 13.5 7.4 6.6 63 3.3 SSW 28 39 15 21 1012.9 1012.6 0.0
02/01:30am 14.2 8.0 4.2 51 4.6 SSW 26 35 14 19 1012.5 - 0.0
02/01:00am 14.1 8.0 0.7 40 5.8 WSW 22 41 12 22 1012.2 1011.9 0.0
02/12:57am 14.1 6.8 0.0 38 6.0 W 28 41 15 22 1012.1 - 0.0
02/12:30am 15.6 11.1 -0.6 33 6.9 N 13 17 7 9 1011.3 - 0.0
02/12:00am 15.5 11.0 -0.3 34 6.7 N 13 17 7 9 1011.8 1011.5 0.0
 
Date/Time
EST
Temp
°C
App
Temp
°C
Dew
Point
Rel
Hum
%
Delta-T
°C
Wind Press
QNH
hPa
Press
MSL
hPa
Rain
since 9 am
mm
Dir
 
Spd
km/h
Gust
km/h
Spd
kts
Gust
kts
01/11:30pm 15.6 11.6 0.2 35 6.6 N 11 15 6 8 1012.0 - 0.0
01/11:00pm 15.6 11.6 0.2 35 6.6 N 11 17 6 9 1012.1 1011.8 0.0
01/10:30pm 16.2 11.7 -0.1 33 7.0 N 13 19 7 10 1012.5 - 0.0
01/10:00pm 16.0 11.6 0.6 35 6.7 N 13 19 7 10 1012.5 1012.2 0.0
01/09:30pm 15.9 11.5 0.1 34 6.8 N 13 15 7 8 1012.8 - 0.0
01/09:00pm 16.9 12.5 0.1 32 7.3 N 13 19 7 10 1013.1 1012.8 0.0
01/08:30pm 16.4 12.5 0.9 35 6.8 N 11 15 6 8 1013.2 - 0.0
01/08:00pm 16.2 12.9 2.2 39 6.3 N 9 13 5 7 1013.2 1012.9 0.0
01/07:30pm 15.8 12.8 4.2 46 5.4 N 9 11 5 6 1013.3 - 0.0
01/07:00pm 16.2 13.9 5.5 49 5.2 N 7 9 4 5 1013.0 1012.7 0.0
01/06:30pm 17.1 16.1 5.4 46 5.7 CALM 0 0 0 0 1012.9 - 0.0
01/06:00pm 18.3 17.4 6.2 45 6.0 CALM 0 4 0 2 1012.9 1012.6 0.0
01/05:30pm 20.2 18.1 8.2 46 6.3 NW 9 9 5 5 1013.0 - 0.0
01/05:00pm 20.5 18.0 6.4 40 7.2 W 9 11 5 6 1012.8 1012.5 0.0
01/04:30pm 21.8 18.0 3.9 31 8.7 WNW 13 17 7 9 1012.8 - 0.0
01/04:00pm 23.0 19.2 1.9 25 10.0 W 11 20 6 11 1013.0 1012.7 0.0
01/03:30pm 23.2 19.2 2.7 26 9.9 WNW 13 20 7 11 1013.1 - 0.0
01/03:00pm 23.8 19.3 2.0 24 10.4 NNW 15 24 8 13 1013.4 1013.2 0.0
01/02:30pm 23.6 19.1 2.4 25 10.2 NW 15 22 8 12 1013.8 - 0.0
01/02:00pm 23.5 19.6 3.4 27 9.8 N 13 22 7 12 1014.0 1013.8 0.0
01/01:30pm 22.9 20.2 2.4 26 9.8 NW 6 17 3 9 1014.4 - 0.0
01/01:00pm 22.5 17.8 3.1 28 9.4 NNE 17 33 9 18 1015.0 1014.8 0.0
01/12:30pm 22.5 18.3 3.6 29 9.2 NW 15 22 8 12 1015.8 - 0.0
01/12:00pm 21.8 17.9 3.5 30 8.8 NW 13 20 7 11 1016.4 1016.2 0.0
01/11:30am 21.6 17.1 4.2 32 8.5 NW 17 24 9 13 1017.1 - 0.0
01/11:00am 20.7 17.2 7.3 42 6.9 NNW 15 22 8 12 1017.7 1017.4 0.0
01/10:30am 19.6 15.8 7.4 45 6.3 N 17 22 9 12 1018.0 - 0.0
01/10:00am 18.8 16.1 9.0 53 5.2 N 13 17 7 9 1018.4 1018.2 0.0
01/09:30am 17.3 15.5 9.5 60 4.1 NNE 9 13 5 7 1018.4 - 0.0
01/09:00am 15.4 13.4 10.2 71 2.7 NE 11 17 6 9 1018.3 1018.4 0.0
01/08:30am 13.1 10.2 9.7 80 1.8 NNE 15 19 8 10 1018.2 - 0.0
01/08:00am 11.3 8.5 10.0 92 0.7 NE 15 19 8 10 1018.2 1018.3 0.0
01/07:30am 9.3 7.3 8.8 97 0.2 NE 9 11 5 6 1018.4 - 0.0
01/07:00am 7.0 4.1 6.7 98 0.1 E 11 13 6 7 1018.1 1018.1 0.0
01/06:30am 5.3 3.8 5.0 98 0.1 E 2 6 1 3 1018.1 - 0.0
01/06:00am 5.4 4.3 5.1 98 0.1 CALM 0 0 0 0 1017.7 1017.7 0.0
01/05:30am 6.0 5.0 5.7 98 0.1 CALM 0 0 0 0 1017.2 - 0.0
01/05:00am 6.0 5.0 5.7 98 0.1 CALM 0 0 0 0 1017.1 1017.2 0.0
01/04:30am 6.3 5.4 6.0 98 0.1 CALM 0 0 0 0 1016.9 - 0.0
01/04:00am 6.3 4.2 5.9 97 0.2 E 6 7 3 4 1016.6 1016.7 0.0
01/03:30am 6.1 4.0 5.7 97 0.2 E 6 6 3 3 1016.5 - 0.0
01/03:00am 6.9 4.8 6.5 97 0.2 E 7 9 4 5 1016.4 1016.5 0.0
01/02:30am 7.1 5.0 6.7 97 0.2 E 7 9 4 5 1016.6 - 0.0
01/02:00am 7.6 5.6 7.0 96 0.3 E 7 9 4 5 1016.9 1017.0 0.0
01/01:30am 8.2 5.6 7.8 97 0.2 E 11 11 6 6 1017.0 - 0.0
01/01:00am 8.2 5.6 7.8 97 0.2 E 11 13 6 7 1017.6 1017.6 0.0
01/12:30am 8.7 7.0 8.3 97 0.2 E 7 9 4 5 1017.9 - 0.0
01/12:00am 8.7 6.9 7.9 95 0.4 E 7 9 4 5 1017.9 1017.9 0.0
 
Date/Time
EST
Temp
°C
App
Temp
°C
Dew
Point
Rel
Hum
%
Delta-T
°C
Wind Press
QNH
hPa
Press
MSL
hPa
Rain
since 9 am
mm
Dir
 
Spd
km/h
Gust
km/h
Spd
kts
Gust
kts
31/11:30pm 8.3 6.0 7.4 94 0.4 E 9 9 5 5 1018.1 - 0.0
31/11:00pm 8.4 7.0 7.3 93 0.5 E 4 9 2 5 1018.3 1018.4 0.0
31/10:30pm 9.0 8.4 7.3 89 0.8 CALM 0 0 0 0 1018.5 - 0.0
31/10:00pm 9.5 9.2 8.7 95 0.4 CALM 0 0 0 0 1018.5 1018.6 0.0
31/09:30pm 9.8 9.4 8.4 91 0.7 CALM 0 0 0 0 1018.7 - 0.0
31/09:00pm 10.2 9.8 8.3 88 0.9 CALM 0 0 0 0 1018.5 1018.6 0.0
31/08:30pm 10.8 10.4 8.4 85 1.2 CALM 0 0 0 0 1018.3 - 0.0
31/08:00pm 11.2 10.8 8.1 81 1.5 CALM 0 0 0 0 1018.2 1018.3 0.0
31/07:30pm 11.7 11.2 8.0 78 1.8 CALM 0 0 0 0 1018.0 - 0.0
31/07:00pm 12.9 12.3 7.4 69 2.7 CALM 0 0 0 0 1017.8 1017.8 0.0
31/06:30pm 14.6 12.9 7.6 63 3.5 SW 6 7 3 4 1017.6 - 0.0
31/06:00pm 16.5 14.0 6.6 52 4.9 SSW 9 9 5 5 1017.4 1017.4 0.0
31/05:30pm 18.5 16.8 7.6 49 5.6 S 6 7 3 4 1017.1 - 0.0
31/05:00pm 19.4 16.6 6.8 44 6.4 SE 11 13 6 7 1016.9 1017.0 0.0
31/04:30pm 20.1 16.9 6.8 42 6.8 SSE 13 17 7 9 1016.9 - 0.0
31/04:00pm 19.3 15.7 6.8 44 6.3 S 15 19 8 10 1017.1 1017.2 0.0
31/03:30pm 20.9 17.2 6.4 39 7.4 SW 15 19 8 10 1017.1 - 0.0
31/03:00pm 21.7 17.4 7.9 41 7.2 S 20 24 11 13 1017.2 1017.3 0.0
31/02:30pm 19.6 16.4 7.0 44 6.4 SW 13 19 7 10 1017.6 - 0.0
31/02:00pm 19.8 15.3 6.2 41 6.8 SSW 19 24 10 13 1018.0 1018.0 0.0
31/01:30pm 20.7 17.4 8.0 44 6.6 SSW 15 22 8 12 1018.3 - 0.0
31/01:00pm 20.3 17.9 7.0 42 6.8 SSE 9 17 5 9 1018.8 1018.9 0.0
31/12:30pm 20.5 17.5 7.5 43 6.7 SSW 13 28 7 15 1019.3 - 0.0
31/12:00pm 19.7 16.8 8.1 47 6.0 SSW 13 22 7 12 1019.8 1019.9 0.0
31/11:30am 19.1 16.5 7.8 48 5.8 SW 11 17 6 9 1020.2 - 0.0
31/11:00am 18.6 16.9 8.3 51 5.3 SW 7 13 4 7 1020.5 1020.6 0.0
31/10:30am 18.7 17.2 9.2 54 5.0 SE 7 11 4 6 1020.9 - 0.0
31/10:00am 18.6 17.4 9.4 55 4.9 NNE 6 9 3 5 1021.1 1021.2 0.0
31/09:30am 17.5 16.2 9.9 61 4.0 E 7 13 4 7 1021.2 - 0.0
31/09:00am 15.3 14.4 10.5 73 2.5 SE 6 7 3 4 1021.2 1021.3 0.0
31/08:30am 13.6 13.1 10.9 84 1.4 E 4 6 2 3 1021.2 - 0.0
31/08:00am 11.7 10.8 11.2 97 0.3 E 7 9 4 5 1021.2 1021.3 0.0
31/07:30am 9.7 8.3 9.4 98 0.2 E 7 7 4 4 1021.0 - 0.0
31/07:00am 5.5 4.4 5.2 98 0.1 CALM 0 4 0 2 1020.8 1020.9 0.0
31/06:30am 4.3 3.0 4.0 98 0.1 CALM 0 0 0 0 1020.5 - 0.0
31/06:00am 5.5 3.1 5.2 98 0.1 ESE 7 7 4 4 1020.2 1020.3 0.0
31/05:30am 5.0 2.7 4.7 98 0.1 SE 6 7 3 4 1020.1 - 0.0
31/05:00am 5.8 4.8 5.5 98 0.1 CALM 0 0 0 0 1020.2 1020.3 0.0
31/04:30am 5.8 4.8 5.4 97 0.2 CALM 0 0 0 0 1020.1 - 0.0
31/04:00am 6.7 5.9 6.4 98 0.1 CALM 0 0 0 0 1020.0 1020.1 0.0
31/03:30am 6.7 5.9 6.3 97 0.2 CALM 0 0 0 0 1019.9 - 0.0
31/03:00am 7.3 6.2 6.9 97 0.2 E 2 6 1 3 1020.1 1020.2 0.0
31/02:30am 7.4 5.4 7.0 97 0.2 ESE 7 7 4 4 1020.4 - 0.0
31/02:00am 7.0 5.1 6.6 97 0.2 E 6 9 3 5 1020.5 1020.6 0.0
31/01:30am 7.8 6.1 7.4 97 0.2 ENE 6 9 3 5 1020.7 - 0.0
31/01:00am 7.9 6.5 7.1 95 0.4 E 4 7 2 4 1020.8 1020.9 0.0
31/12:30am 8.7 6.4 7.6 93 0.5 SSE 9 11 5 6 1020.8 - 0.0
31/12:00am 10.9 8.0 8.3 84 1.3 SSE 13 19 7 10 1020.9 1021.0 0.0
 
Date/Time
EST
Temp
°C
App
Temp
°C
Dew
Point
Rel
Hum
%
Delta-T
°C
Wind Press
QNH
hPa
Press
MSL
hPa
Rain
since 9 am
mm
Dir
 
Spd
km/h
Gust
km/h
Spd
kts
Gust
kts
30/11:30pm 10.1 7.3 8.4 89 0.8 SSE 13 15 7 8 1021.0 - 0.0
30/11:00pm 10.5 7.9 7.6 82 1.4 S 11 13 6 7 1021.1 1021.2 0.0
30/10:30pm 12.1 8.6 7.4 73 2.3 S 15 19 8 10 1021.1 - 0.0
30/10:00pm 12.9 8.7 7.6 70 2.6 S 19 24 10 13 1021.1 1021.2 0.0
30/09:30pm 13.3 9.5 7.5 68 2.9 S 17 20 9 11 1021.2 - 0.0
30/09:00pm 13.3 9.6 8.0 70 2.6 S 17 19 9 10 1021.2 1021.3 0.0
30/08:30pm 13.7 9.7 8.3 70 2.7 S 19 20 10 11 1021.1 - 0.0
30/08:00pm 13.2 9.6 8.5 73 2.4 S 17 20 9 11 1021.0 1021.1 0.0
30/07:30pm 13.8 10.2 8.2 69 2.8 SSW 17 19 9 10 1021.0 - 0.0
30/07:00pm 14.3 11.1 8.5 68 2.9 SSW 15 19 8 10 1020.8 1020.9 0.0
30/06:30pm 13.9 11.0 8.1 68 2.9 SSW 13 17 7 9 1020.6 - 0.0
30/06:00pm 15.4 12.1 8.2 62 3.6 SSW 15 17 8 9 1020.4 1020.5 0.0
30/05:30pm 17.2 14.3 8.1 55 4.7 S 13 17 7 9 1020.4 - 0.0
30/05:00pm 18.5 14.4 7.9 50 5.4 SSW 19 22 10 12 1020.3 1020.4 0.0
30/04:30pm 19.1 15.8 8.1 49 5.7 S 15 20 8 11 1020.3 - 0.0
30/04:00pm 19.4 15.4 8.1 48 5.9 S 19 26 10 14 1020.3 1020.4 0.0
30/03:30pm 19.4 15.3 7.8 47 6.0 SSE 19 26 10 14 1020.4 - 0.0
30/03:00pm 19.2 15.0 7.6 47 6.0 S 19 26 10 14 1020.6 1020.7 0.0
30/02:30pm 19.3 15.2 7.7 47 6.0 S 19 28 10 15 1020.9 - 0.0

Other Formats:

Comma delimited format used in spreadsheet applications
http://www.bom.gov.au/fwo/IDN60801/IDN60801.95718.axf

JavaScript Object Notation format (JSON) in row-major order
http://www.bom.gov.au/fwo/IDN60801/IDN60801.95718.json